Lake Desolation, New York
Current Conditions -  °F | °C
As of 5:15 AM on Tuesday 27 Jan 2015 (Local Time) from KNY0 Reporting Station
Overcast Overcast  
Wind Chill: 14°   Ceiling: 10000
Heat Index: 14°   Visibility: 10mi
Dew Point: -4°   Wind: 0mph
Humidity: 45%   Direction: NA
Pressure: 29.8"   Gusts: NA
Location:  43.1097°N, 74.0176°W
Report Text: KNY0 271015Z AUTO 00000KT 10SM OVC100 M10/M20 A2980 RMK AO2 T10981198
Loading
Personal Weather Stations






























Interactive Weather Map New forecast layout! Learn more

10-Day Weather Forecast

Advertisements
Track Severe Weather on mobile